PMDY METAR and TAF weather

Enter ICAO airport designator
Station Type Date Time Source
PMDY METAR 2020/03/28 00:37 UTC NOAA

PMDY 280037Z AUTO 09012KT 5SM HZ BKN016 OVC027 24/19 A3018 RMK AO2


Station Type Date Time Source
PMDY Decoded METAR 2020/03/28 00:37 UTC NOAA

Sand Island, Henderson Field Airport, HI, United States (PMDY) 28-13N 177-22W 6M
Mar 27, 2020 - 08:37 PM EDT / 2020.03.28 0037 UTC
Wind: from the E (090 degrees) at 14 MPH (12 KT):0
Visibility: 5 mile(s):0
Sky conditions: overcast
Weather: haze
Temperature: 75 F (24 C)
Dew Point: 66 F (19 C)
Relative Humidity: 73%
Pressure (altimeter): 30.18 in. Hg (1022 hPa)
ob: PMDY 280037Z AUTO 09012KT 5SM HZ BKN016 OVC027 24/19 A3018 RMK AO2
cycle: 0

Station Type Date Time Source
PMDY TAF 2020/03/29 18:39 UTC NOAA

TAF PMDY 291736Z 2918/3018 02009KT P6SM VCSH SCT020 BKN035

Example: see airport list